Terminal Aerodrome Forecast
Issued by NWS Billings, MT

Home | Current Version | Previous Version | Text Only | Print | Product List | Glossary On
Versions: 1 2 3 4 5 6 7 8 9 10 11 12 13 14 15 16
000
FTUS45 KBYZ 261721
TAFBIL
TAF
KBIL 261721Z 2618/2718 25009KT P6SM SCT070 BKN100
     FM262100 30009KT P6SM BKN070
     FM270400 22005KT P6SM SCT080=

USA.gov is the U.S. government's official web portal to all federal, state and local government web resources and services.